Aviation Digital Data Service (ADDS)

Output produced by TAFs form (1330 UTC 21 December 2014)
found at http://www.aviationweather.gov/adds/tafs/
 
KABE 211133Z 2112/2212 34005KT P6SM BKN035 OVC120 
     FM220000 VRB02KT P6SM SCT035 BKN250